Terminal Aerodrome Forecast
Issued by NWS Salt Lake City, UT

Home | Current Version | Previous Version | Text Only | Print | Product List | Glossary On
Versions: 1 2 3 4 5 6 7 8 9 10 11 12 13 14 15 16 17 18 19 20 21 22 23 24 25 26 27 28 29 30 31 32 33 34 35 36 37 38 39 40 41
000
FTUS45 KSLC 172154 AAC
TAFCDC
TAF AMD
KCDC 172154Z 1722/1818 VRB03KT P6SM VCSH SCT010 BKN015 OVC035
     FM172200 VRB04KT P6SM VCSH FEW015 OVC050
     FM180000 20003KT P6SM SCT050 BKN070
     FM180600 00000KT P6SM BKN040=

USA.gov is the U.S. government's official web portal to all federal, state and local government web resources and services.